To NAV CANADA Home Page Login to a new session Search on AWWS site Disclaimer Vers la page française équivalente Tips FAQ What's new on the site To the Forecasts and Observations / NOTAM section To "File a Flight Plan" website Publications and other links Update of the User's profile FIC Telephone Numbers My Weather Data Folder Route Weather Data Regional Weather Data Local Weather Data To the Forecasts and Observations / NOTAM section
Request Generated 08/19/2022 at 01:54:17 UTC . Weather information available at that time is displayed.

METAR/TAF

RED LAKE/ON    

SPECI CYRL 190138Z 27006KT 220V290 15SM -SHRA SCT010 OVC030CB 19/17 A2990 RMK CF4CB4 CB W MOV SW SLP130 DENSITY ALT 2100FT=
METAR CYRL 190100Z 26007KT 230V290 15SM VCSH SCT012 OVC030CB 20/17 A2989 RMK CF3CB5 VCSH W-N CB S-W-N MOV W PRESRR SLP125 DENSITY AL
T 2200FT=
SPECI CYRL 190006Z 15007KT 15SM -SHRA BKN028CB BKN240 21/16 A2986 RMK CB7CI1 CI TR CB N CB S QUAD MOV W SLP115 DENSITY ALT 2400FT=
METAR CYRL 190000Z 14006G17KT 15SM VCSH BKN028CB BKN240 21/15 A2985 RMK CB7CI1 CI TR VCSH NE-SW CB N CB S QUAD MOV W SLP114 DENSITY
ALT 2400FT=
SPECI CYRL 182355Z 12010G17KT 100V160 15SM VCSH BKN028CB BKN240 22/15 A2985 RMK CB7CI1 CI TR VCSH NE-SE CB N CB S QUAD MOV E SLP113
DENSITY ALT 2500FT=
SPECI CYRL 182340Z 11007KT 030V120 15SM TS VCSH BKN028CB BKN240 22/15 A2985 RMK CB6CI1 CI TR VCSH NE-S CB E-S QUADS MOV E SLP112 DEN
SITY ALT 2500FT=
SPECI CYRL 182326Z CCA 07006KT 040V100 15SM VCSH BKN030CB BKN240 23/15 A2984 RMK CB6CI1 VCSH NE-SE CB E-S QUADS MOV W SLP111 DENSITY
ALT 2600FT=
SPECI CYRL 182326Z 07006KT 040V100 15SM VCSH BKN030CB BKN240 23/15 A2984 RMK CB6CI1 VCSH NE-SE CB E-S QUADS MOV N SLP111 DENSITY ALT
2600FT=
SPECI CYRL 182306Z 06005KT 030V110 15SM -SHRA BKN032CB OVC240 23/15 A2984 RMK CB7CI1 CB NE-SW MOV N SLP110 DENSITY ALT 2600FT=
METAR CYRL 182300Z 07008KT 360V090 15SM VCSH BKN035CB BKN100 OVC240 24/15 A2984 RMK CB6AC1CI2 AC TR VCSH E-S CB NE-SW MOV N SLP110 D
ENSITY ALT 2700FT=

TAF AMD CYRL 182347Z 1823/1902 11006KT P6SM BKN030 TEMPO 1823/1902
2SM TSRA BR BKN020 OVC030CB
RMK NXT FCST BY 191100Z=
Your time UTC time
Weather data provided by Environment Canada and NAV CANADA